sensor_id;sensor_type;location;lat;lon;timestamp;pressure;altitude;pressure_sealevel;temperature;humidity
53300;BME280;39187;48.476;8.310;2022-07-05T00:00:45;91708.22;;;16.51;49.65
53300;BME280;39187;48.476;8.310;2022-07-05T00:03:11;91699.66;;;16.43;50.04
53300;BME280;39187;48.476;8.310;2022-07-05T00:05:37;91705.06;;;16.53;50.06
53300;BME280;39187;48.476;8.310;2022-07-05T00:08:03;91704.03;;;16.50;49.79
53300;BME280;39187;48.476;8.310;2022-07-05T00:10:30;91706.25;;;16.52;49.99
53300;BME280;39187;48.476;8.310;2022-07-05T00:12:55;91704.31;;;16.52;50.37
53300;BME280;39187;48.476;8.310;2022-07-05T00:15:21;91700.59;;;16.50;50.73
53300;BME280;39187;48.476;8.310;2022-07-05T00:17:47;91693.72;;;16.49;50.92
53300;BME280;39187;48.476;8.310;2022-07-05T00:20:13;91701.78;;;16.49;50.96
53300;BME280;39187;48.476;8.310;2022-07-05T00:22:38;91695.22;;;16.50;50.82
53300;BME280;39187;48.476;8.310;2022-07-05T00:25:04;91700.28;;;16.48;51.04
53300;BME280;39187;48.476;8.310;2022-07-05T00:27:30;91697.59;;;16.48;51.39
53300;BME280;39187;48.476;8.310;2022-07-05T00:29:55;91698.00;;;16.46;51.54
53300;BME280;39187;48.476;8.310;2022-07-05T00:32:21;91696.50;;;16.45;51.60
53300;BME280;39187;48.476;8.310;2022-07-05T00:34:47;91698.59;;;16.41;52.02
53300;BME280;39187;48.476;8.310;2022-07-05T00:37:12;91699.47;;;16.38;52.14
53300;BME280;39187;48.476;8.310;2022-07-05T00:39:38;91697.22;;;16.36;51.79
53300;BME280;39187;48.476;8.310;2022-07-05T00:42:04;91693.03;;;16.35;51.67
53300;BME280;39187;48.476;8.310;2022-07-05T00:44:35;91700.22;;;16.38;51.83
53300;BME280;39187;48.476;8.310;2022-07-05T00:47:04;91694.84;;;16.38;52.01
53300;BME280;39187;48.476;8.310;2022-07-05T00:49:31;91688.41;;;16.36;51.96
53300;BME280;39187;48.476;8.310;2022-07-05T00:51:57;91690.34;;;16.35;52.21
53300;BME280;39187;48.476;8.310;2022-07-05T00:54:23;91691.19;;;16.32;52.14
53300;BME280;39187;48.476;8.310;2022-07-05T00:56:49;91691.50;;;16.34;51.99
53300;BME280;39187;48.476;8.310;2022-07-05T00:59:15;91691.66;;;16.31;51.90
53300;BME280;39187;48.476;8.310;2022-07-05T01:01:40;91689.25;;;16.33;52.23
53300;BME280;39187;48.476;8.310;2022-07-05T01:04:06;91696.50;;;16.23;52.50
53300;BME280;39187;48.476;8.310;2022-07-05T01:06:32;91698.97;;;16.30;52.29
53300;BME280;39187;48.476;8.310;2022-07-05T01:08:59;91691.19;;;16.32;52.04
53300;BME280;39187;48.476;8.310;2022-07-05T01:11:25;91696.28;;;16.30;52.83
53300;BME280;39187;48.476;8.310;2022-07-05T01:13:51;91695.84;;;16.32;52.60
53300;BME280;39187;48.476;8.310;2022-07-05T01:16:16;91698.22;;;16.30;52.68
53300;BME280;39187;48.476;8.310;2022-07-05T01:18:43;91684.34;;;16.31;52.66
53300;BME280;39187;48.476;8.310;2022-07-05T01:21:12;91686.28;;;16.31;52.75
53300;BME280;39187;48.476;8.310;2022-07-05T01:23:39;91682.66;;;16.25;52.93
53300;BME280;39187;48.476;8.310;2022-07-05T01:26:06;91677.72;;;16.23;53.05
53300;BME280;39187;48.476;8.310;2022-07-05T01:28:32;91684.69;;;16.21;53.19
53300;BME280;39187;48.476;8.310;2022-07-05T01:31:00;91686.94;;;16.22;52.74
53300;BME280;39187;48.476;8.310;2022-07-05T01:33:28;91687.09;;;16.19;53.07
53300;BME280;39187;48.476;8.310;2022-07-05T01:35:54;91687.94;;;16.16;53.09
53300;BME280;39187;48.476;8.310;2022-07-05T01:38:20;91682.56;;;16.16;52.80
53300;BME280;39187;48.476;8.310;2022-07-05T01:40:45;91691.72;;;16.18;52.63
53300;BME280;39187;48.476;8.310;2022-07-05T01:43:12;91681.41;;;16.17;52.39
53300;BME280;39187;48.476;8.310;2022-07-05T01:45:37;91679.31;;;16.21;52.40
53300;BME280;39187;48.476;8.310;2022-07-05T01:48:12;91682.66;;;16.25;51.90
53300;BME280;39187;48.476;8.310;2022-07-05T01:50:45;91680.84;;;16.22;52.42
53300;BME280;39187;48.476;8.310;2022-07-05T01:53:22;91683.94;;;16.20;52.75
53300;BME280;39187;48.476;8.310;2022-07-05T01:55:48;91682.75;;;16.21;52.58
53300;BME280;39187;48.476;8.310;2022-07-05T01:58:13;91681.72;;;16.19;52.47
53300;BME280;39187;48.476;8.310;2022-07-05T02:00:51;91675.13;;;16.20;52.45
53300;BME280;39187;48.476;8.310;2022-07-05T02:03:17;91677.09;;;16.19;52.49
53300;BME280;39187;48.476;8.310;2022-07-05T02:05:44;91679.47;;;16.17;52.83
53300;BME280;39187;48.476;8.310;2022-07-05T02:08:10;91683.66;;;16.18;52.93
53300;BME280;39187;48.476;8.310;2022-07-05T02:10:37;91676.59;;;16.12;53.04
53300;BME280;39187;48.476;8.310;2022-07-05T02:13:04;91680.31;;;16.14;52.72
53300;BME280;39187;48.476;8.310;2022-07-05T02:15:31;91678.72;;;16.17;52.40
53300;BME280;39187;48.476;8.310;2022-07-05T02:17:57;91673.19;;;16.20;52.54
53300;BME280;39187;48.476;8.310;2022-07-05T02:20:22;91670.50;;;16.20;52.16
53300;BME280;39187;48.476;8.310;2022-07-05T02:22:48;91676.97;;;16.23;51.93
53300;BME280;39187;48.476;8.310;2022-07-05T02:25:14;91674.72;;;16.21;52.27
53300;BME280;39187;48.476;8.310;2022-07-05T02:27:39;91674.28;;;16.23;52.06
53300;BME280;39187;48.476;8.310;2022-07-05T02:30:05;91678.03;;;16.25;51.77
53300;BME280;39187;48.476;8.310;2022-07-05T02:32:31;91672.22;;;16.27;51.81
53300;BME280;39187;48.476;8.310;2022-07-05T02:34:58;91681.47;;;16.26;51.55
53300;BME280;39187;48.476;8.310;2022-07-05T02:37:23;91665.34;;;16.26;51.65
53300;BME280;39187;48.476;8.310;2022-07-05T02:39:49;91678.03;;;16.25;51.81
53300;BME280;39187;48.476;8.310;2022-07-05T02:42:15;91670.41;;;16.24;51.65
53300;BME280;39187;48.476;8.310;2022-07-05T02:44:40;91674.28;;;16.23;52.15
53300;BME280;39187;48.476;8.310;2022-07-05T02:47:06;91682.00;;;16.21;52.07
53300;BME280;39187;48.476;8.310;2022-07-05T02:49:32;91682.16;;;16.17;52.22
53300;BME280;39187;48.476;8.310;2022-07-05T02:51:57;91678.72;;;16.17;52.34
53300;BME280;39187;48.476;8.310;2022-07-05T02:54:23;91676.78;;;16.17;51.99
53300;BME280;39187;48.476;8.310;2022-07-05T02:56:49;91679.78;;;16.19;52.03
53300;BME280;39187;48.476;8.310;2022-07-05T02:59:14;91674.41;;;16.19;52.03
53300;BME280;39187;48.476;8.310;2022-07-05T03:01:40;91673.94;;;16.21;51.56
53300;BME280;39187;48.476;8.310;2022-07-05T03:04:05;91670.50;;;16.20;51.92
53300;BME280;39187;48.476;8.310;2022-07-05T03:06:32;91671.59;;;16.23;51.54
53300;BME280;39187;48.476;8.310;2022-07-05T03:08:58;91677.72;;;16.23;51.63
53300;BME280;39187;48.476;8.310;2022-07-05T03:11:23;91677.28;;;16.25;51.62
53300;BME280;39187;48.476;8.310;2022-07-05T03:13:49;91676.09;;;16.26;51.30
53300;BME280;39187;48.476;8.310;2022-07-05T03:16:15;91679.47;;;16.17;51.52
53300;BME280;39187;48.476;8.310;2022-07-05T03:18:40;91682.34;;;16.23;51.43
53300;BME280;39187;48.476;8.310;2022-07-05T03:21:06;91676.09;;;16.26;51.38
53300;BME280;39187;48.476;8.310;2022-07-05T03:23:31;91683.28;;;16.29;51.04
53300;BME280;39187;48.476;8.310;2022-07-05T03:25:57;91684.78;;;16.30;51.26
53300;BME280;39187;48.476;8.310;2022-07-05T03:28:23;91688.50;;;16.32;51.26
53300;BME280;39187;48.476;8.310;2022-07-05T03:30:48;91685.09;;;16.32;51.42
53300;BME280;39187;48.476;8.310;2022-07-05T03:33:14;91688.06;;;16.34;51.42
53300;BME280;39187;48.476;8.310;2022-07-05T03:35:39;91693.88;;;16.32;50.99
53300;BME280;39187;48.476;8.310;2022-07-05T03:38:05;91700.00;;;16.33;51.33
53300;BME280;39187;48.476;8.310;2022-07-05T03:40:31;91692.41;;;16.31;51.17
53300;BME280;39187;48.476;8.310;2022-07-05T03:42:56;91691.66;;;16.31;51.37
53300;BME280;39187;48.476;8.310;2022-07-05T03:45:22;91700.47;;;16.31;51.38
53300;BME280;39187;48.476;8.310;2022-07-05T03:47:47;91700.13;;;16.29;51.50
53300;BME280;39187;48.476;8.310;2022-07-05T03:50:13;91692.09;;;16.29;51.77
53300;BME280;39187;48.476;8.310;2022-07-05T03:52:38;91697.47;;;16.29;51.62
53300;BME280;39187;48.476;8.310;2022-07-05T03:55:04;91706.25;;;16.30;51.56
53300;BME280;39187;48.476;8.310;2022-07-05T03:57:30;91700.56;;;16.28;51.88
53300;BME280;39187;48.476;8.310;2022-07-05T03:59:56;91708.34;;;16.26;51.53
53300;BME280;39187;48.476;8.310;2022-07-05T04:02:22;91708.38;;;16.35;51.78
53300;BME280;39187;48.476;8.310;2022-07-05T04:04:48;91713.00;;;16.69;50.58
53300;BME280;39187;48.476;8.310;2022-07-05T04:07:13;91705.72;;;17.40;49.15
53300;BME280;39187;48.476;8.310;2022-07-05T04:09:39;91711.88;;;18.17;47.63
53300;BME280;39187;48.476;8.310;2022-07-05T04:12:05;91712.78;;;18.78;46.65
53300;BME280;39187;48.476;8.310;2022-07-05T04:14:31;91712.50;;;19.27;45.19
53300;BME280;39187;48.476;8.310;2022-07-05T04:16:56;91710.38;;;19.73;44.58
53300;BME280;39187;48.476;8.310;2022-07-05T04:19:22;91723.28;;;20.26;43.26
53300;BME280;39187;48.476;8.310;2022-07-05T04:21:47;91722.41;;;20.67;41.99
53300;BME280;39187;48.476;8.310;2022-07-05T04:24:13;91719.44;;;21.09;41.16
53300;BME280;39187;48.476;8.310;2022-07-05T04:26:38;91717.13;;;21.32;41.02
53300;BME280;39187;48.476;8.310;2022-07-05T04:29:04;91710.25;;;21.80;40.18
53300;BME280;39187;48.476;8.310;2022-07-05T04:31:30;91720.34;;;22.15;39.42
53300;BME280;39187;48.476;8.310;2022-07-05T04:33:55;91714.25;;;22.40;38.91
53300;BME280;39187;48.476;8.310;2022-07-05T04:36:21;91718.88;;;23.00;38.26
53300;BME280;39187;48.476;8.310;2022-07-05T04:38:46;91714.34;;;23.17;37.92
53300;BME280;39187;48.476;8.310;2022-07-05T04:41:12;91716.25;;;23.37;37.99
53300;BME280;39187;48.476;8.310;2022-07-05T04:43:38;91717.34;;;23.82;37.32
53300;BME280;39187;48.476;8.310;2022-07-05T04:46:03;91717.16;;;24.28;36.35
53300;BME280;39187;48.476;8.310;2022-07-05T04:48:29;91711.84;;;24.51;35.90
53300;BME280;39187;48.476;8.310;2022-07-05T04:50:54;91717.88;;;24.77;34.27
53300;BME280;39187;48.476;8.310;2022-07-05T04:53:20;91718.94;;;25.02;34.60
53300;BME280;39187;48.476;8.310;2022-07-05T04:55:46;91722.72;;;25.32;34.87
53300;BME280;39187;48.476;8.310;2022-07-05T04:58:11;91723.72;;;25.40;34.77
53300;BME280;39187;48.476;8.310;2022-07-05T05:00:37;91722.75;;;25.60;35.49
53300;BME280;39187;48.476;8.310;2022-07-05T05:03:03;91717.78;;;25.81;35.45
53300;BME280;39187;48.476;8.310;2022-07-05T05:05:28;91720.69;;;26.33;33.51
53300;BME280;39187;48.476;8.310;2022-07-05T05:07:54;91713.31;;;26.86;31.58
53300;BME280;39187;48.476;8.310;2022-07-05T05:10:20;91718.09;;;26.74;32.27
53300;BME280;39187;48.476;8.310;2022-07-05T05:12:45;91714.16;;;27.16;31.10
53300;BME280;39187;48.476;8.310;2022-07-05T05:15:11;91709.09;;;26.90;31.25
53300;BME280;39187;48.476;8.310;2022-07-05T05:17:41;91715.69;;;27.47;30.40
53300;BME280;39187;48.476;8.310;2022-07-05T05:20:17;91720.84;;;27.62;30.64
53300;BME280;39187;48.476;8.310;2022-07-05T05:22:44;91717.53;;;27.99;31.13
53300;BME280;39187;48.476;8.310;2022-07-05T05:25:10;91723.78;;;27.69;30.68
53300;BME280;39187;48.476;8.310;2022-07-05T05:27:44;91722.13;;;27.55;31.84
53300;BME280;39187;48.476;8.310;2022-07-05T05:30:11;91727.22;;;27.34;33.34
53300;BME280;39187;48.476;8.310;2022-07-05T05:32:37;91726.88;;;27.49;31.96
53300;BME280;39187;48.476;8.310;2022-07-05T05:35:03;91727.31;;;27.94;31.81
53300;BME280;39187;48.476;8.310;2022-07-05T05:37:29;91724.03;;;27.66;29.52
53300;BME280;39187;48.476;8.310;2022-07-05T05:39:54;91729.34;;;27.88;29.24
53300;BME280;39187;48.476;8.310;2022-07-05T05:42:20;91720.56;;;28.49;27.56
53300;BME280;39187;48.476;8.310;2022-07-05T05:44:45;91728.03;;;28.73;27.75
53300;BME280;39187;48.476;8.310;2022-07-05T05:47:11;91728.31;;;28.45;27.28
53300;BME280;39187;48.476;8.310;2022-07-05T05:49:37;91720.66;;;28.62;28.20
53300;BME280;39187;48.476;8.310;2022-07-05T05:52:03;91730.13;;;28.13;27.94
53300;BME280;39187;48.476;8.310;2022-07-05T05:54:28;91739.03;;;28.43;28.04
53300;BME280;39187;48.476;8.310;2022-07-05T05:56:54;91732.44;;;28.57;28.34
53300;BME280;39187;48.476;8.310;2022-07-05T05:59:19;91730.59;;;28.90;27.65
53300;BME280;39187;48.476;8.310;2022-07-05T06:01:45;91740.63;;;29.25;27.56
53300;BME280;39187;48.476;8.310;2022-07-05T06:04:10;91749.13;;;29.02;27.69
53300;BME280;39187;48.476;8.310;2022-07-05T06:06:36;91741.88;;;29.42;26.71
53300;BME280;39187;48.476;8.310;2022-07-05T06:09:02;91750.88;;;29.94;25.97
53300;BME280;39187;48.476;8.310;2022-07-05T06:11:27;91751.00;;;30.01;25.19
53300;BME280;39187;48.476;8.310;2022-07-05T06:13:53;91755.72;;;29.69;25.87
53300;BME280;39187;48.476;8.310;2022-07-05T06:16:18;91761.78;;;29.80;25.56
53300;BME280;39187;48.476;8.310;2022-07-05T06:18:44;91758.44;;;30.19;24.92
53300;BME280;39187;48.476;8.310;2022-07-05T06:21:10;91760.06;;;29.96;25.77
53300;BME280;39187;48.476;8.310;2022-07-05T06:23:35;91756.16;;;29.73;26.42
53300;BME280;39187;48.476;8.310;2022-07-05T06:26:01;91758.31;;;30.12;25.16
53300;BME280;39187;48.476;8.310;2022-07-05T06:28:26;91765.28;;;29.81;25.34
53300;BME280;39187;48.476;8.310;2022-07-05T06:30:52;91754.63;;;30.22;24.91
53300;BME280;39187;48.476;8.310;2022-07-05T06:33:19;91758.13;;;29.91;25.25
53300;BME280;39187;48.476;8.310;2022-07-05T06:35:45;91763.69;;;29.85;25.31
53300;BME280;39187;48.476;8.310;2022-07-05T06:38:11;91769.94;;;29.86;25.33
53300;BME280;39187;48.476;8.310;2022-07-05T06:40:38;91766.06;;;30.26;25.29
53300;BME280;39187;48.476;8.310;2022-07-05T06:43:06;91762.84;;;30.81;24.39
53300;BME280;39187;48.476;8.310;2022-07-05T06:45:32;91778.19;;;30.63;24.87
53300;BME280;39187;48.476;8.310;2022-07-05T06:48:03;91775.22;;;30.74;24.54
53300;BME280;39187;48.476;8.310;2022-07-05T06:50:32;91770.06;;;30.84;24.38
53300;BME280;39187;48.476;8.310;2022-07-05T06:52:58;91783.41;;;30.48;25.39
53300;BME280;39187;48.476;8.310;2022-07-05T06:55:25;91776.81;;;30.56;25.25
53300;BME280;39187;48.476;8.310;2022-07-05T06:58:02;91772.22;;;30.46;25.02
53300;BME280;39187;48.476;8.310;2022-07-05T07:00:29;91772.44;;;30.48;25.27
53300;BME280;39187;48.476;8.310;2022-07-05T07:02:55;91766.03;;;30.72;24.80
53300;BME280;39187;48.476;8.310;2022-07-05T07:05:21;91764.56;;;31.10;24.45
53300;BME280;39187;48.476;8.310;2022-07-05T07:07:47;91767.84;;;31.22;23.98
53300;BME280;39187;48.476;8.310;2022-07-05T07:10:48;91780.19;;;31.02;24.19
53300;BME280;39187;48.476;8.310;2022-07-05T07:13:13;91781.59;;;31.09;23.95
53300;BME280;39187;48.476;8.310;2022-07-05T07:15:39;91778.19;;;31.29;23.79
53300;BME280;39187;48.476;8.310;2022-07-05T07:18:05;91784.44;;;31.16;23.83
53300;BME280;39187;48.476;8.310;2022-07-05T07:20:31;91779.56;;;30.70;24.13
53300;BME280;39187;48.476;8.310;2022-07-05T07:22:57;91781.03;;;29.43;25.49
53300;BME280;39187;48.476;8.310;2022-07-05T07:25:24;91788.75;;;30.14;25.24
53300;BME280;39187;48.476;8.310;2022-07-05T07:27:51;91795.94;;;30.62;24.81
53300;BME280;39187;48.476;8.310;2022-07-05T07:30:20;91787.38;;;30.20;25.36
53300;BME280;39187;48.476;8.310;2022-07-05T07:32:46;91790.03;;;30.26;25.04
53300;BME280;39187;48.476;8.310;2022-07-05T07:35:12;91796.81;;;30.38;25.27
53300;BME280;39187;48.476;8.310;2022-07-05T07:37:38;91797.97;;;30.75;24.65
53300;BME280;39187;48.476;8.310;2022-07-05T07:40:05;91799.03;;;30.72;23.94
53300;BME280;39187;48.476;8.310;2022-07-05T07:42:31;91793.41;;;30.51;24.28
53300;BME280;39187;48.476;8.310;2022-07-05T07:44:56;91797.09;;;29.71;25.39
53300;BME280;39187;48.476;8.310;2022-07-05T07:47:22;91798.44;;;30.02;25.77
53300;BME280;39187;48.476;8.310;2022-07-05T07:49:47;91807.47;;;29.97;26.42
53300;BME280;39187;48.476;8.310;2022-07-05T07:52:13;91796.06;;;30.24;25.06
53300;BME280;39187;48.476;8.310;2022-07-05T07:54:39;91798.88;;;29.68;25.90
53300;BME280;39187;48.476;8.310;2022-07-05T07:57:05;91800.47;;;30.14;25.16
53300;BME280;39187;48.476;8.310;2022-07-05T07:59:31;91806.19;;;30.29;24.59
53300;BME280;39187;48.476;8.310;2022-07-05T08:01:57;91807.91;;;30.33;24.87
53300;BME280;39187;48.476;8.310;2022-07-05T08:04:23;91809.50;;;30.09;25.52
53300;BME280;39187;48.476;8.310;2022-07-05T08:06:49;91808.13;;;28.85;26.30
53300;BME280;39187;48.476;8.310;2022-07-05T08:09:14;91810.16;;;29.03;27.07
53300;BME280;39187;48.476;8.310;2022-07-05T08:11:40;91808.22;;;29.41;26.06
53300;BME280;39187;48.476;8.310;2022-07-05T08:14:06;91806.88;;;29.66;26.59
53300;BME280;39187;48.476;8.310;2022-07-05T08:16:32;91810.63;;;30.19;25.72
53300;BME280;39187;48.476;8.310;2022-07-05T08:18:57;91818.91;;;30.33;25.30
53300;BME280;39187;48.476;8.310;2022-07-05T08:21:42;91817.72;;;30.28;25.52
53300;BME280;39187;48.476;8.310;2022-07-05T08:24:09;91808.88;;;29.84;26.03
53300;BME280;39187;48.476;8.310;2022-07-05T08:26:36;91814.00;;;30.25;25.20
53300;BME280;39187;48.476;8.310;2022-07-05T08:29:04;91818.06;;;30.38;24.93
53300;BME280;39187;48.476;8.310;2022-07-05T08:31:34;91823.38;;;30.49;25.03
53300;BME280;39187;48.476;8.310;2022-07-05T08:34:01;91815.22;;;30.43;25.22
53300;BME280;39187;48.476;8.310;2022-07-05T08:36:26;91813.09;;;29.85;25.35
53300;BME280;39187;48.476;8.310;2022-07-05T08:38:52;91812.13;;;28.84;26.39
53300;BME280;39187;48.476;8.310;2022-07-05T08:41:19;91812.78;;;29.33;26.91
53300;BME280;39187;48.476;8.310;2022-07-05T08:43:47;91813.25;;;29.74;27.02
53300;BME280;39187;48.476;8.310;2022-07-05T08:46:14;91810.06;;;29.52;27.27
53300;BME280;39187;48.476;8.310;2022-07-05T08:48:42;91808.75;;;28.12;28.22
53300;BME280;39187;48.476;8.310;2022-07-05T08:51:13;91807.59;;;27.20;29.54
53300;BME280;39187;48.476;8.310;2022-07-05T08:53:40;91814.97;;;28.43;28.60
53300;BME280;39187;48.476;8.310;2022-07-05T08:56:10;91814.72;;;28.95;26.92
53300;BME280;39187;48.476;8.310;2022-07-05T08:58:37;91809.00;;;28.68;27.55
53300;BME280;39187;48.476;8.310;2022-07-05T09:01:04;91814.06;;;29.32;26.82
53300;BME280;39187;48.476;8.310;2022-07-05T09:03:32;91823.66;;;29.20;26.60
53300;BME280;39187;48.476;8.310;2022-07-05T09:06:01;91820.69;;;29.42;26.65
53300;BME280;39187;48.476;8.310;2022-07-05T09:08:29;91815.28;;;29.55;26.88
53300;BME280;39187;48.476;8.310;2022-07-05T09:11:01;91820.34;;;29.27;27.33
53300;BME280;39187;48.476;8.310;2022-07-05T09:13:27;91821.09;;;28.84;27.22
53300;BME280;39187;48.476;8.310;2022-07-05T09:15:53;91829.16;;;29.20;26.87
53300;BME280;39187;48.476;8.310;2022-07-05T09:18:45;91821.50;;;29.37;26.39
53300;BME280;39187;48.476;8.310;2022-07-05T09:21:25;91823.00;;;29.32;26.57
53300;BME280;39187;48.476;8.310;2022-07-05T09:23:57;91824.47;;;29.76;26.41
53300;BME280;39187;48.476;8.310;2022-07-05T09:26:33;91829.50;;;29.72;26.63
53300;BME280;39187;48.476;8.310;2022-07-05T09:28:59;91828.47;;;27.12;28.93
53300;BME280;39187;48.476;8.310;2022-07-05T09:31:32;91831.63;;;27.27;29.89
53300;BME280;39187;48.476;8.310;2022-07-05T09:34:10;91828.81;;;27.44;28.88
53300;BME280;39187;48.476;8.310;2022-07-05T09:37:03;91825.53;;;27.62;29.06
53300;BME280;39187;48.476;8.310;2022-07-05T09:42:21;91841.22;;;27.56;28.78
53300;BME280;39187;48.476;8.310;2022-07-05T09:44:57;91836.63;;;28.16;27.54
53300;BME280;39187;48.476;8.310;2022-07-05T09:47:24;91832.72;;;27.65;29.10
53300;BME280;39187;48.476;8.310;2022-07-05T09:49:54;91838.50;;;27.97;29.67
53300;BME280;39187;48.476;8.310;2022-07-05T09:52:36;91846.13;;;27.69;29.89
53300;BME280;39187;48.476;8.310;2022-07-05T09:55:08;91843.03;;;28.54;26.71
53300;BME280;39187;48.476;8.310;2022-07-05T09:57:40;91835.09;;;27.80;27.09
53300;BME280;39187;48.476;8.310;2022-07-05T10:00:07;91836.34;;;27.32;27.52
53300;BME280;39187;48.476;8.310;2022-07-05T10:02:44;91840.25;;;26.68;29.70
53300;BME280;39187;48.476;8.310;2022-07-05T10:05:12;91836.03;;;27.41;28.05
53300;BME280;39187;48.476;8.310;2022-07-05T10:07:44;91837.50;;;27.53;26.42
53300;BME280;39187;48.476;8.310;2022-07-05T10:10:12;91845.13;;;27.14;27.19
53300;BME280;39187;48.476;8.310;2022-07-05T10:12:39;91837.94;;;27.63;26.59
53300;BME280;39187;48.476;8.310;2022-07-05T10:15:09;91845.78;;;27.83;26.89
53300;BME280;39187;48.476;8.310;2022-07-05T10:17:39;91839.88;;;28.15;26.57
53300;BME280;39187;48.476;8.310;2022-07-05T10:20:15;91840.09;;;28.47;26.41
53300;BME280;39187;48.476;8.310;2022-07-05T10:22:42;91827.06;;;28.28;25.20
53300;BME280;39187;48.476;8.310;2022-07-05T10:25:08;91838.59;;;28.76;25.12
53300;BME280;39187;48.476;8.310;2022-07-05T10:27:36;91837.00;;;28.31;24.35
53300;BME280;39187;48.476;8.310;2022-07-05T10:30:03;91833.97;;;28.65;22.25
53300;BME280;39187;48.476;8.310;2022-07-05T10:32:30;91835.72;;;29.35;21.37
53300;BME280;39187;48.476;8.310;2022-07-05T10:34:58;91830.53;;;28.59;24.72
53300;BME280;39187;48.476;8.310;2022-07-05T10:37:25;91834.47;;;29.36;25.07
53300;BME280;39187;48.476;8.310;2022-07-05T10:39:54;91831.44;;;29.40;25.26
53300;BME280;39187;48.476;8.310;2022-07-05T10:42:20;91836.31;;;30.35;23.45
53300;BME280;39187;48.476;8.310;2022-07-05T10:44:46;91826.41;;;30.00;24.11
53300;BME280;39187;48.476;8.310;2022-07-05T10:47:12;91848.22;;;31.15;22.59
53300;BME280;39187;48.476;8.310;2022-07-05T10:49:39;91846.34;;;29.44;24.35
53300;BME280;39187;48.476;8.310;2022-07-05T10:52:05;91852.06;;;30.35;23.36
53300;BME280;39187;48.476;8.310;2022-07-05T10:55:21;91841.72;;;32.25;21.13
53300;BME280;39187;48.476;8.310;2022-07-05T11:00:42;91834.72;;;29.76;23.82
53300;BME280;39187;48.476;8.310;2022-07-05T11:03:38;91841.06;;;29.46;24.97
53300;BME280;39187;48.476;8.310;2022-07-05T11:06:07;91851.53;;;29.67;24.25
53300;BME280;39187;48.476;8.310;2022-07-05T11:13:53;91848.97;;;26.05;26.09
53300;BME280;39187;48.476;8.310;2022-07-05T11:16:27;91848.19;;;26.66;26.31
53300;BME280;39187;48.476;8.310;2022-07-05T11:19:05;91845.63;;;25.51;29.26
53300;BME280;39187;48.476;8.310;2022-07-05T11:21:31;91846.59;;;25.42;28.54
53300;BME280;39187;48.476;8.310;2022-07-05T11:24:23;91845.78;;;25.14;28.15
53300;BME280;39187;48.476;8.310;2022-07-05T11:26:50;91841.91;;;24.84;28.86
53300;BME280;39187;48.476;8.310;2022-07-05T11:29:40;91838.97;;;24.45;30.51
53300;BME280;39187;48.476;8.310;2022-07-05T11:32:08;91842.16;;;24.43;30.61
53300;BME280;39187;48.476;8.310;2022-07-05T11:34:37;91845.06;;;24.34;31.47
53300;BME280;39187;48.476;8.310;2022-07-05T11:37:22;91835.22;;;24.11;31.87
53300;BME280;39187;48.476;8.310;2022-07-05T11:42:37;91832.25;;;23.77;33.68
53300;BME280;39187;48.476;8.310;2022-07-05T11:45:08;91830.19;;;23.21;34.19
53300;BME280;39187;48.476;8.310;2022-07-05T11:47:34;91836.97;;;23.56;34.51
53300;BME280;39187;48.476;8.310;2022-07-05T11:50:00;91830.75;;;23.30;35.16
53300;BME280;39187;48.476;8.310;2022-07-05T11:52:29;91834.97;;;23.51;34.84
53300;BME280;39187;48.476;8.310;2022-07-05T11:55:03;91832.91;;;23.00;35.19
53300;BME280;39187;48.476;8.310;2022-07-05T11:57:30;91836.31;;;23.15;35.54
53300;BME280;39187;48.476;8.310;2022-07-05T11:59:55;91835.88;;;23.23;35.28
53300;BME280;39187;48.476;8.310;2022-07-05T12:02:21;91831.06;;;22.92;35.68
53300;BME280;39187;48.476;8.310;2022-07-05T12:04:57;91825.84;;;23.08;35.03
53300;BME280;39187;48.476;8.310;2022-07-05T12:07:33;91824.91;;;22.91;35.26
53300;BME280;39187;48.476;8.310;2022-07-05T12:10:00;91824.47;;;22.98;35.10
53300;BME280;39187;48.476;8.310;2022-07-05T12:12:45;91822.44;;;23.13;35.33
53300;BME280;39187;48.476;8.310;2022-07-05T12:15:17;91828.56;;;22.88;36.05
53300;BME280;39187;48.476;8.310;2022-07-05T12:17:48;91820.69;;;23.10;35.24
53300;BME280;39187;48.476;8.310;2022-07-05T12:20:20;91821.91;;;23.09;33.64
53300;BME280;39187;48.476;8.310;2022-07-05T12:22:46;91815.13;;;22.99;33.71
53300;BME280;39187;48.476;8.310;2022-07-05T12:25:16;91824.81;;;22.65;35.88
53300;BME280;39187;48.476;8.310;2022-07-05T12:27:44;91821.53;;;22.96;35.91
53300;BME280;39187;48.476;8.310;2022-07-05T12:30:11;91821.25;;;22.74;36.71
53300;BME280;39187;48.476;8.310;2022-07-05T12:33:00;91821.34;;;22.45;36.85
53300;BME280;39187;48.476;8.310;2022-07-05T12:35:45;91828.47;;;22.62;36.02
53300;BME280;39187;48.476;8.310;2022-07-05T12:38:14;91830.41;;;22.97;35.84
53300;BME280;39187;48.476;8.310;2022-07-05T12:40:42;91825.84;;;22.88;34.38
53300;BME280;39187;48.476;8.310;2022-07-05T12:43:10;91820.50;;;22.73;34.57
53300;BME280;39187;48.476;8.310;2022-07-05T12:45:37;91825.25;;;22.78;35.41
53300;BME280;39187;48.476;8.310;2022-07-05T12:48:05;91820.19;;;22.51;36.24
53300;BME280;39187;48.476;8.310;2022-07-05T12:50:51;91826.03;;;22.29;36.72
53300;BME280;39187;48.476;8.310;2022-07-05T12:53:18;91829.34;;;22.54;37.10
53300;BME280;39187;48.476;8.310;2022-07-05T12:56:07;91829.06;;;22.52;37.13
53300;BME280;39187;48.476;8.310;2022-07-05T12:58:53;91820.50;;;21.89;35.27
53300;BME280;39187;48.476;8.310;2022-07-05T13:01:30;91817.34;;;22.40;36.19
53300;BME280;39187;48.476;8.310;2022-07-05T13:07:00;91820.63;;;22.29;36.20
53300;BME280;39187;48.476;8.310;2022-07-05T13:12:08;91823.25;;;22.59;34.59
53300;BME280;39187;48.476;8.310;2022-07-05T13:14:35;91816.50;;;22.54;35.12
53300;BME280;39187;48.476;8.310;2022-07-05T13:17:01;91823.66;;;22.02;34.81
53300;BME280;39187;48.476;8.310;2022-07-05T13:19:27;91821.00;;;22.22;32.86
53300;BME280;39187;48.476;8.310;2022-07-05T13:21:53;91813.69;;;22.28;32.78
53300;BME280;39187;48.476;8.310;2022-07-05T13:24:18;91823.38;;;22.70;31.96